Time;durP1;ratioP1;P1;durP2;ratioP2;P2;SDS_P1;SDS_P2;PMS_P1;PMS_P2;Temp;Humidity;BMP_temperature;BMP_pressure;BME280_temperature;BME280_humidity;BME280_pressure;Samples;Min_cycle;Max_cycle;Signal;HPM_P1;HPM_P2
2022/03/23 00:01:01;;;;;;;5.80;1.75;;;;;;;5.99;34.78;95054.59;5024151;28;20018;-74
2022/03/23 00:03:27;;;;;;;8.73;2.33;;;;;;;5.92;35.02;95058.47;5024192;28;20029;-74
2022/03/23 00:05:53;;;;;;;7.35;2.40;;;;;;;5.81;35.08;95047.81;5023885;28;20216;-74
2022/03/23 00:08:20;;;;;;;9.77;2.63;;;;;;;5.74;35.46;95049.09;5006485;28;20018;-74
2022/03/23 00:10:45;;;;;;;8.65;2.35;;;;;;;5.67;35.16;95049.31;5024184;28;20304;-74
2022/03/23 00:13:12;;;;;;;5.75;2.50;;;;;;;5.69;35.49;95046.41;5024032;28;20065;-74
2022/03/23 00:15:38;;;;;;;10.40;2.35;;;;;;;5.61;35.64;95045.03;5023752;28;20064;-74
2022/03/23 00:18:04;;;;;;;3.97;1.98;;;;;;;5.57;35.76;95049.22;5023737;28;20025;-73
2022/03/23 00:20:29;;;;;;;9.10;2.22;;;;;;;5.46;35.89;95042.28;5023902;28;20113;-74
2022/03/23 00:22:55;;;;;;;6.30;2.00;;;;;;;5.42;35.87;95044.63;5023787;28;20018;-74
2022/03/23 00:25:20;;;;;;;10.25;2.45;;;;;;;5.37;35.82;95040.09;5023719;28;20056;-74
2022/03/23 00:27:47;;;;;;;11.38;2.90;;;;;;;5.34;35.67;95037.94;5023950;28;20026;-74
2022/03/23 00:30:12;;;;;;;18.17;3.28;;;;;;;5.31;35.68;95049.03;5023515;28;20095;-74
2022/03/23 00:32:38;;;;;;;7.47;2.63;;;;;;;5.25;35.88;95043.91;5023759;28;20022;-74
2022/03/23 00:35:03;;;;;;;7.10;2.50;;;;;;;5.26;35.70;95037.59;5023688;28;20216;-74
2022/03/23 00:37:29;;;;;;;15.95;2.80;;;;;;;5.25;35.75;95038.63;5023325;28;20190;-74
2022/03/23 00:39:55;;;;;;;9.30;1.80;;;;;;;5.24;35.54;95037.84;5023444;28;20029;-74
2022/03/23 00:42:21;;;;;;;5.65;1.77;;;;;;;5.21;35.86;95039.13;5023406;28;20021;-74
2022/03/23 00:44:46;;;;;;;10.07;2.03;;;;;;;5.18;35.63;95044.91;5023533;28;20029;-74
2022/03/23 00:47:12;;;;;;;5.13;1.83;;;;;;;5.09;35.74;95035.03;5023366;28;20099;-74
2022/03/23 00:49:39;;;;;;;6.82;2.03;;;;;;;5.09;35.86;95035.03;5023404;28;20053;-74
2022/03/23 00:52:06;;;;;;;7.93;1.60;;;;;;;5.07;35.80;95047.69;5022983;28;20118;-74
2022/03/23 00:54:35;;;;;;;5.68;2.00;;;;;;;5.07;35.92;95045.88;5023152;28;20026;-74
2022/03/23 00:57:02;;;;;;;4.30;1.75;;;;;;;5.08;35.46;95049.31;5023345;28;20032;-75
2022/03/23 00:59:28;;;;;;;4.82;2.00;;;;;;;5.09;35.74;95050.88;5022995;28;20046;-74
2022/03/23 01:01:53;;;;;;;7.50;1.70;;;;;;;5.01;35.61;95050.31;5023181;28;20251;-74
2022/03/23 01:04:19;;;;;;;4.65;1.90;;;;;;;4.99;35.62;95049.75;5023229;28;20021;-74
2022/03/23 01:06:45;;;;;;;8.27;2.80;;;;;;;4.96;35.41;95037.03;5023040;28;20040;-74
2022/03/23 01:09:10;;;;;;;8.90;2.10;;;;;;;4.95;35.75;95043.38;5023183;28;20045;-74
2022/03/23 01:11:37;;;;;;;5.88;2.45;;;;;;;4.91;35.86;95049.41;5023169;28;20263;-74
2022/03/23 01:14:03;;;;;;;8.00;2.33;;;;;;;4.87;35.67;95041.16;5022789;28;20312;-74
2022/03/23 01:16:28;;;;;;;7.78;2.35;;;;;;;4.78;35.96;95051.38;5022848;28;20232;-74
2022/03/23 01:18:54;;;;;;;8.40;2.17;;;;;;;4.71;36.19;95055.25;5022990;28;20026;-74
2022/03/23 01:21:21;;;;;;;8.70;1.98;;;;;;;4.75;35.74;95051.06;5023009;28;20030;-74
2022/03/23 01:23:46;;;;;;;8.57;1.65;;;;;;;4.79;35.80;95052.97;5022962;28;20017;-74
2022/03/23 01:26:12;;;;;;;10.40;1.75;;;;;;;4.82;35.91;95051.66;5022856;28;20021;-74
2022/03/23 01:28:38;;;;;;;5.63;1.83;;;;;;;4.85;35.77;95045.09;5022712;28;20018;-74
2022/03/23 01:31:03;;;;;;;5.95;1.75;;;;;;;4.81;35.19;95040.31;5022926;28;20064;-74
2022/03/23 01:33:29;;;;;;;4.22;1.58;;;;;;;4.87;34.99;95030.59;5022793;28;20439;-74
2022/03/23 01:35:54;;;;;;;5.60;1.70;;;;;;;4.88;35.25;95032.19;5022628;28;20026;-74
2022/03/23 01:38:20;;;;;;;6.88;1.77;;;;;;;4.83;35.33;95026.84;5022665;28;20312;-74
2022/03/23 01:40:46;;;;;;;4.10;1.50;;;;;;;4.85;35.21;95035.34;5022638;28;20021;-74
2022/03/23 01:43:11;;;;;;;12.05;2.38;;;;;;;4.79;35.49;95031.84;5005093;28;20101;-74
2022/03/23 01:45:37;;;;;;;5.80;2.03;;;;;;;4.78;35.30;95034.72;5022670;28;20044;-74
2022/03/23 01:48:03;;;;;;;5.38;1.55;;;;;;;4.83;35.20;95027.66;5007769;28;20026;-74
2022/03/23 01:50:29;;;;;;;7.35;1.70;;;;;;;4.85;35.30;95023.97;5026504;28;20340;-74
2022/03/23 01:52:54;;;;;;;5.80;1.45;;;;;;;4.87;35.24;95020.03;5026473;28;20058;-75
2022/03/23 01:55:20;;;;;;;11.13;2.10;;;;;;;4.90;35.49;95027.44;5026809;28;20018;-75
2022/03/23 01:57:47;;;;;;;5.00;1.70;;;;;;;4.89;35.50;95030.34;5026512;28;20021;-75
2022/03/23 02:00:16;;;;;;;6.63;1.60;;;;;;;4.88;35.68;95021.63;5026449;28;20017;-75
2022/03/23 02:02:43;;;;;;;7.35;1.80;;;;;;;4.85;35.63;95016.84;5026489;28;20040;-74
2022/03/23 02:05:09;;;;;;;6.50;1.45;;;;;;;4.84;35.92;95012.59;5026265;28;20221;-75
2022/03/23 02:07:35;;;;;;;9.65;1.55;;;;;;;4.82;36.01;95020.78;5026351;28;20313;-74
2022/03/23 02:10:01;;;;;;;5.10;1.75;;;;;;;4.80;36.12;95027.34;5026354;28;20021;-74
2022/03/23 02:12:30;;;;;;;8.13;2.08;;;;;;;4.73;36.32;95016.19;5026283;28;20346;-74
2022/03/23 02:14:56;;;;;;;5.80;2.10;;;;;;;4.69;36.28;95010.59;5025998;28;20072;-75
2022/03/23 02:17:21;;;;;;;5.68;2.33;;;;;;;4.63;36.29;95020.28;5026352;28;20093;-74
2022/03/23 02:19:47;;;;;;;10.95;1.95;;;;;;;4.64;36.34;95023.75;5026094;28;20304;-74
2022/03/23 02:22:13;;;;;;;10.52;1.67;;;;;;;4.64;36.35;95018.47;5026051;28;20036;-75
2022/03/23 02:24:38;;;;;;;7.90;1.70;;;;;;;4.63;36.17;95017.66;5025988;28;20026;-75
2022/03/23 02:27:04;;;;;;;6.13;1.50;;;;;;;4.60;36.19;95018.16;5025897;28;20312;-74
2022/03/23 02:29:34;;;;;;;7.22;2.33;;;;;;;4.54;36.45;95019.16;5026009;28;20092;-75
2022/03/23 02:32:01;;;;;;;6.82;1.70;;;;;;;4.53;36.54;95016.75;5025411;28;20021;-75
2022/03/23 02:34:27;;;;;;;6.07;2.20;;;;;;;4.49;36.83;95015.63;5025739;28;20033;-75
2022/03/23 02:36:53;;;;;;;11.18;1.52;;;;;;;4.50;36.73;95023.31;5025958;28;20041;-75
2022/03/23 02:39:19;;;;;;;7.35;2.40;;;;;;;4.44;36.77;95013.75;5025965;28;20328;-75
2022/03/23 02:41:45;;;;;;;7.53;2.05;;;;;;;4.40;37.08;95017.91;5025749;28;20021;-74
2022/03/23 02:44:18;;;;;;;9.43;2.05;;;;;;;4.41;37.21;95014.22;5025579;28;20282;-75
2022/03/23 02:46:43;;;;;;;6.55;2.20;;;;;;;4.41;37.31;95017.66;5025603;28;20022;-75
2022/03/23 02:49:09;;;;;;;9.88;2.22;;;;;;;4.39;37.43;95022.38;5025524;28;20034;-75
2022/03/23 02:51:35;;;;;;;6.75;1.58;;;;;;;4.36;37.36;95016.81;5025502;28;20038;-76
2022/03/23 03:03:05;;;;;;;4.93;1.50;;;;;;;4.20;37.94;95029.81;5024932;28;20028;-75
2022/03/23 03:05:30;;;;;;;7.88;1.73;;;;;;;4.16;38.25;95023.41;5025186;28;20021;-75
2022/03/23 03:10:40;;;;;;;4.45;1.75;;;;;;;4.11;38.17;95027.81;5025208;28;20207;-74
2022/03/23 03:13:05;;;;;;;8.18;1.80;;;;;;;4.06;38.53;95022.50;5024978;28;20017;-74
2022/03/23 03:15:31;;;;;;;5.40;1.77;;;;;;;4.05;38.72;95026.97;5025109;28;20128;-74
2022/03/23 03:17:59;;;;;;;12.00;2.58;;;;;;;4.06;38.84;95022.50;5024694;28;20029;-74
2022/03/23 03:20:26;;;;;;;5.40;1.67;;;;;;;4.06;38.90;95030.41;5025112;28;20018;-74
2022/03/23 03:22:52;;;;;;;5.20;1.65;;;;;;;4.06;38.89;95036.47;5025069;28;20025;-74
2022/03/23 03:25:20;;;;;;;8.77;2.15;;;;;;;4.08;38.96;95030.97;5024969;28;20014;-74
2022/03/23 03:27:46;;;;;;;4.78;1.90;;;;;;;4.03;38.99;95036.97;5024929;28;20014;-75
2022/03/23 03:30:15;;;;;;;5.72;1.52;;;;;;;4.06;39.10;95028.56;5024774;28;20022;-74
2022/03/23 03:32:41;;;;;;;12.35;1.60;;;;;;;4.02;38.97;95028.25;5024646;28;20052;-74
2022/03/23 03:35:07;;;;;;;7.55;1.63;;;;;;;4.05;39.23;95032.25;5007144;28;20022;-74
2022/03/23 03:37:33;;;;;;;3.17;1.60;;;;;;;4.00;39.66;95022.41;5024564;28;20050;-74
2022/03/23 03:39:59;;;;;;;3.45;1.73;;;;;;;4.03;39.55;95026.41;5024553;28;20399;-74
2022/03/23 03:42:26;;;;;;;9.57;1.67;;;;;;;4.01;39.62;95026.66;5024732;28;20213;-74
2022/03/23 03:44:51;;;;;;;6.57;1.73;;;;;;;4.02;40.02;95027.44;5024430;28;20026;-74
2022/03/23 03:47:18;;;;;;;5.03;1.73;;;;;;;4.01;40.09;95025.88;5024531;28;20049;-74
2022/03/23 03:49:44;;;;;;;6.75;1.77;;;;;;;4.00;40.32;95024.25;5024350;28;20022;-74
2022/03/23 03:52:10;;;;;;;7.88;2.03;;;;;;;3.88;40.34;95020.91;5024006;28;20052;-74
2022/03/23 03:54:35;;;;;;;3.97;1.85;;;;;;;3.84;40.59;95025.06;5024171;28;20331;-74
2022/03/23 03:57:01;;;;;;;4.20;1.90;;;;;;;3.87;40.85;95029.84;5024186;28;20028;-74
2022/03/23 03:59:26;;;;;;;7.97;1.95;;;;;;;3.86;41.14;95036.97;5024054;28;20025;-74
2022/03/23 04:01:52;;;;;;;6.70;2.00;;;;;;;3.81;41.64;95035.06;5024317;28;20197;-74
2022/03/23 04:04:17;;;;;;;4.05;1.83;;;;;;;3.79;41.96;95034.50;5024064;28;20017;-74
2022/03/23 04:06:43;;;;;;;7.53;2.25;;;;;;;3.74;42.06;95031.78;5024189;28;20033;-74
2022/03/23 04:09:08;;;;;;;7.10;1.67;;;;;;;3.67;42.89;95039.06;5024015;28;20014;-74
2022/03/23 04:11:35;;;;;;;8.55;1.98;;;;;;;3.64;43.15;95042.19;5023631;28;20029;-74
2022/03/23 04:14:00;;;;;;;10.15;2.90;;;;;;;3.57;42.95;95042.34;5023907;28;20028;-74
2022/03/23 04:16:26;;;;;;;7.60;2.22;;;;;;;3.60;43.21;95035.78;5022724;28;20100;-74
2022/03/23 04:18:51;;;;;;;7.20;2.05;;;;;;;3.58;43.32;95032.59;5023549;28;20197;-75
2022/03/23 04:21:17;;;;;;;13.50;2.72;;;;;;;3.60;43.51;95036.59;5023728;28;20156;-74
2022/03/23 04:23:42;;;;;;;8.13;2.05;;;;;;;3.58;43.71;95040.50;5023769;28;20036;-74
2022/03/23 04:26:08;;;;;;;12.80;3.03;;;;;;;3.63;43.68;95040.59;5023709;28;20021;-73
2022/03/23 04:28:33;;;;;;;12.15;2.40;;;;;;;3.66;43.81;95037.47;5023477;28;20021;-74
2022/03/23 04:30:59;;;;;;;9.18;2.25;;;;;;;3.63;43.91;95022.13;5023616;28;20017;-74
2022/03/23 04:33:25;;;;;;;8.18;2.63;;;;;;;3.64;43.88;95031.63;5023725;28;20056;-74
2022/03/23 04:35:50;;;;;;;8.98;2.47;;;;;;;3.67;44.11;95028.53;5023531;28;20025;-74
2022/03/23 04:38:16;;;;;;;8.38;2.70;;;;;;;3.60;44.21;95041.06;5023549;28;20030;-74
2022/03/23 04:40:42;;;;;;;10.13;2.60;;;;;;;3.64;44.38;95031.63;5023321;28;20017;-73
2022/03/23 04:43:07;;;;;;;11.05;2.08;;;;;;;3.68;44.27;95026.69;5023330;28;20047;-74
2022/03/23 04:45:33;;;;;;;10.48;3.88;;;;;;;3.72;44.22;95031.22;5023281;28;20029;-74
2022/03/23 04:47:58;;;;;;;11.88;4.47;;;;;;;3.76;44.44;95028.91;5023566;28;20010;-74
2022/03/23 04:50:24;;;;;;;8.38;3.13;;;;;;;3.78;44.11;95034.75;5023431;28;20026;-74
2022/03/23 04:52:52;;;;;;;9.63;3.60;;;;;;;3.81;44.32;95031.63;5023099;28;20114;-74
2022/03/23 04:55:18;;;;;;;7.45;2.63;;;;;;;3.84;43.47;95028.50;5023295;28;20022;-74
2022/03/23 04:57:44;;;;;;;9.88;2.30;;;;;;;3.86;43.56;95023.78;5023022;28;20033;-74
2022/03/23 05:00:13;;;;;;;11.32;2.67;;;;;;;3.91;43.80;95023.06;5023120;28;20021;-73
2022/03/23 05:02:39;;;;;;;4.07;1.90;;;;;;;3.95;43.38;95018.91;5023068;28;20252;-74
2022/03/23 05:05:11;;;;;;;11.65;2.22;;;;;;;4.00;43.30;95016.34;5022991;28;20108;-74
2022/03/23 05:07:37;;;;;;;11.05;2.30;;;;;;;4.02;43.54;95017.69;5022938;28;20022;-73
2022/03/23 05:10:03;;;;;;;6.53;2.53;;;;;;;4.04;43.50;95020.09;5022906;28;20084;-73
2022/03/23 05:12:28;;;;;;;13.43;2.05;;;;;;;4.06;43.66;95025.91;5022940;28;20030;-74
2022/03/23 05:14:54;;;;;;;8.00;3.00;;;;;;;4.09;43.88;95020.16;5023212;28;20044;-73
2022/03/23 05:17:20;;;;;;;11.32;3.15;;;;;;;4.13;43.72;95025.72;5022630;28;20101;-74
2022/03/23 05:19:45;;;;;;;9.18;3.38;;;;;;;4.16;43.90;95023.41;5022958;28;20049;-73
2022/03/23 05:22:12;;;;;;;9.00;3.22;;;;;;;4.17;43.79;95027.66;5021957;28;20044;-73
2022/03/23 05:24:39;;;;;;;13.43;3.22;;;;;;;4.19;43.77;95033.50;5022812;28;20032;-73
2022/03/23 05:27:05;;;;;;;13.43;3.70;;;;;;;4.23;44.13;95025.88;5022626;28;20022;-73
2022/03/23 05:29:32;;;;;;;24.42;4.30;;;;;;;4.21;44.37;95023.50;5022635;28;20076;-72
2022/03/23 05:31:58;;;;;;;9.10;2.88;;;;;;;4.28;44.17;95033.88;5022989;28;20026;-71
2022/03/23 05:34:23;;;;;;;9.88;3.13;;;;;;;4.33;44.10;95035.75;5022983;28;20029;-72
2022/03/23 05:36:48;;;;;;;11.65;3.72;;;;;;;4.40;44.17;95039.03;5022523;28;20025;-72
2022/03/23 05:39:14;;;;;;;9.07;2.90;;;;;;;4.47;44.12;95038.84;5022713;28;20029;-72
2022/03/23 05:41:40;;;;;;;17.33;3.78;;;;;;;4.53;43.97;95038.66;5022704;28;20018;-72
2022/03/23 05:44:06;;;;;;;11.07;4.10;;;;;;;4.60;44.04;95041.94;5022716;28;20029;-72
2022/03/23 05:46:32;;;;;;;10.93;4.07;;;;;;;4.66;44.32;95034.03;5022352;28;20244;-72
2022/03/23 05:48:57;;;;;;;21.98;4.00;;;;;;;4.72;44.15;95035.69;5022508;28;20026;-72
2022/03/23 05:51:23;;;;;;;21.17;4.55;;;;;;;4.79;43.75;95046.88;5022418;28;20234;-72
2022/03/23 05:53:49;;;;;;;13.07;3.28;;;;;;;4.82;44.01;95047.19;5022586;28;20030;-72
2022/03/23 05:56:15;;;;;;;11.95;3.40;;;;;;;4.90;43.87;95048.59;5022246;28;20068;-72
2022/03/23 05:58:40;;;;;;;17.70;2.97;;;;;;;4.94;43.81;95036.47;5022596;28;20022;-72
2022/03/23 06:01:06;;;;;;;13.50;3.28;;;;;;;4.99;43.62;95041.81;5005049;28;20378;-72
2022/03/23 06:03:31;;;;;;;11.23;3.10;;;;;;;5.10;43.72;95044.56;5021159;28;20093;-78
2022/03/23 06:05:57;;;;;;;12.32;3.00;;;;;;;5.13;44.46;95044.88;5020950;28;20014;-73
2022/03/23 06:08:22;;;;;;;12.23;3.60;;;;;;;5.17;43.09;95040.69;5022194;28;20332;-73
2022/03/23 06:10:48;;;;;;;11.80;3.90;;;;;;;5.19;42.95;95050.97;5022232;28;20347;-73
2022/03/23 06:13:15;;;;;;;10.60;3.97;;;;;;;5.18;43.10;95049.41;5022301;28;20093;-73
2022/03/23 06:15:41;;;;;;;9.60;3.15;;;;;;;5.24;43.18;95058.97;5022033;28;20212;-73
2022/03/23 06:18:06;;;;;;;14.35;2.83;;;;;;;5.24;42.74;95053.69;5022063;28;20026;-72
2022/03/23 06:20:32;;;;;;;12.57;3.63;;;;;;;5.27;42.54;95047.09;5021881;28;20032;-74
2022/03/23 06:22:57;;;;;;;15.07;3.30;;;;;;;5.12;43.29;95051.19;5022459;28;20026;-74
2022/03/23 06:25:25;;;;;;;12.38;3.05;;;;;;;5.16;43.32;95052.28;5022276;28;20033;-73
2022/03/23 06:27:50;;;;;;;10.15;3.00;;;;;;;5.07;43.85;95053.81;5022425;28;20034;-74
2022/03/23 06:30:16;;;;;;;10.85;4.43;;;;;;;5.13;44.08;95052.81;5022217;28;20033;-74
2022/03/23 06:32:41;;;;;;;12.90;2.97;;;;;;;5.18;43.69;95055.47;5022531;28;20084;-73
2022/03/23 06:35:07;;;;;;;13.38;3.90;;;;;;;5.19;43.79;95050.97;5025477;28;20304;-73
2022/03/23 06:37:32;;;;;;;11.48;4.05;;;;;;;5.26;44.01;95048.94;5025740;28;20034;-73
2022/03/23 06:39:58;;;;;;;17.83;4.15;;;;;;;5.24;44.23;95053.69;5025845;28;20274;-73
2022/03/23 06:42:24;;;;;;;15.45;3.50;;;;;;;5.22;43.94;95053.16;5025968;28;20089;-73
2022/03/23 06:44:50;;;;;;;16.27;3.22;;;;;;;5.30;43.51;95062.47;5025348;28;20097;-73
2022/03/23 06:47:15;;;;;;;23.70;5.05;;;;;;;5.39;43.54;95055.69;5025717;28;20108;-73
2022/03/23 06:49:41;;;;;;;14.63;3.72;;;;;;;5.50;43.78;95056.59;5025467;28;20030;-73
2022/03/23 06:52:07;;;;;;;14.13;5.13;;;;;;;5.39;44.14;95067.06;5025337;28;20232;-74
2022/03/23 06:54:32;;;;;;;11.13;3.88;;;;;;;5.35;44.36;95071.25;5025167;28;20025;-74
2022/03/23 06:56:57;;;;;;;9.50;3.70;;;;;;;5.43;44.32;95062.06;5025370;28;20045;-73
2022/03/23 06:59:23;;;;;;;14.75;3.63;;;;;;;5.54;43.89;95066.41;5025481;28;20026;-73
2022/03/23 07:01:49;;;;;;;15.07;4.78;;;;;;;5.60;43.96;95077.81;5025494;28;20046;-73
2022/03/23 07:04:39;;;;;;;15.82;4.25;;;;;;;5.54;43.96;95073.53;5025184;28;20022;-74
2022/03/23 07:07:05;;;;;;;10.70;3.47;;;;;;;5.52;44.41;95073.78;5023974;28;20022;-75
2022/03/23 07:09:38;;;;;;;13.02;4.07;;;;;;;5.48;44.01;95074.53;5025031;28;20049;-74
2022/03/23 07:12:07;;;;;;;17.65;4.30;;;;;;;5.42;44.19;95068.41;5025188;28;20038;-75
2022/03/23 07:14:33;;;;;;;12.18;3.83;;;;;;;5.55;44.05;95069.84;5025222;28;20022;-76
2022/03/23 07:16:59;;;;;;;16.50;4.35;;;;;;;5.71;43.99;95073.41;5024689;28;20343;-76
2022/03/23 07:19:25;;;;;;;11.50;3.90;;;;;;;5.79;43.54;95075.59;5025017;28;20022;-74
2022/03/23 07:21:51;;;;;;;13.32;3.33;;;;;;;5.81;43.48;95069.00;5025043;28;20272;-73
2022/03/23 07:24:17;;;;;;;13.77;3.70;;;;;;;5.86;43.63;95075.38;5025053;28;20032;-75
2022/03/23 07:26:43;;;;;;;19.70;4.03;;;;;;;5.90;43.51;95071.97;5024891;28;20026;-74
2022/03/23 07:29:09;;;;;;;13.48;3.20;;;;;;;5.95;43.42;95079.19;5024775;28;20320;-73
2022/03/23 07:31:35;;;;;;;12.48;3.38;;;;;;;6.02;43.24;95082.41;5024848;28;20092;-73
2022/03/23 07:34:02;;;;;;;13.02;3.80;;;;;;;6.14;43.02;95083.00;5024614;28;20229;-74
2022/03/23 07:36:27;;;;;;;11.23;3.38;;;;;;;6.26;42.64;95074.88;5024714;28;20033;-74
2022/03/23 07:38:53;;;;;;;8.93;3.92;;;;;;;6.40;42.21;95080.53;5024655;28;20089;-73
2022/03/23 07:41:18;;;;;;;8.95;3.58;;;;;;;6.48;42.22;95071.31;5024668;28;20033;-73
2022/03/23 07:43:44;;;;;;;10.60;3.65;;;;;;;6.49;42.20;95078.97;5024431;28;20033;-75
2022/03/23 07:46:09;;;;;;;16.15;3.47;;;;;;;6.58;41.79;95088.06;5024048;28;20321;-75
2022/03/23 07:48:35;;;;;;;8.77;3.83;;;;;;;6.68;41.24;95083.88;5024260;28;20022;-75
2022/03/23 07:51:00;;;;;;;17.17;3.55;;;;;;;6.71;41.19;95080.69;5024181;28;20068;-75
2022/03/23 07:53:25;;;;;;;7.60;3.03;;;;;;;6.75;41.26;95079.13;5024522;28;20022;-74
2022/03/23 07:55:51;;;;;;;12.18;3.47;;;;;;;6.85;41.17;95076.50;5024456;28;20256;-75
2022/03/23 07:58:16;;;;;;;13.13;4.15;;;;;;;6.93;40.90;95083.97;5024593;28;20030;-75
2022/03/23 08:00:43;;;;;;;11.43;3.47;;;;;;;6.98;40.34;95086.63;5024401;28;20057;-75
2022/03/23 08:03:09;;;;;;;12.38;3.30;;;;;;;6.89;40.54;95082.09;5024280;28;20232;-75
2022/03/23 08:05:40;;;;;;;11.50;3.42;;;;;;;6.87;41.20;95085.00;5024077;28;20041;-74
2022/03/23 08:08:09;;;;;;;20.60;3.55;;;;;;;6.97;40.81;95090.34;5024075;28;20025;-75
2022/03/23 08:10:35;;;;;;;6.55;2.97;;;;;;;7.03;39.89;95084.00;5023985;28;20029;-75
2022/03/23 08:13:01;;;;;;;6.38;3.30;;;;;;;7.15;40.18;95086.41;5024086;28;20025;-74
2022/03/23 08:15:29;;;;;;;7.43;3.08;;;;;;;7.25;39.14;95075.03;5024005;28;20320;-75
2022/03/23 08:17:55;;;;;;;10.35;2.97;;;;;;;7.07;39.34;95067.56;5023949;28;20386;-75
2022/03/23 08:20:32;;;;;;;8.73;2.80;;;;;;;7.03;40.10;95076.03;5023867;28;20039;-76
2022/03/23 08:22:59;;;;;;;15.18;3.85;;;;;;;7.06;40.16;95071.28;5023945;28;20146;-74
2022/03/23 08:25:25;;;;;;;11.68;2.80;;;;;;;7.01;39.82;95072.84;5023753;28;20201;-73
2022/03/23 08:27:50;;;;;;;11.35;3.83;;;;;;;7.15;40.12;95080.31;5023817;28;20025;-73
2022/03/23 08:30:16;;;;;;;7.97;2.65;;;;;;;7.23;39.65;95075.31;5023717;28;20220;-73
2022/03/23 08:32:41;;;;;;;11.40;3.58;;;;;;;7.31;39.62;95087.25;5023769;28;20030;-73
2022/03/23 08:35:07;;;;;;;10.05;2.67;;;;;;;7.47;39.24;95076.66;5023565;28;20096;-72
2022/03/23 08:37:32;;;;;;;16.65;3.28;;;;;;;7.61;39.48;95077.75;5023591;28;20379;-72
2022/03/23 08:39:59;;;;;;;12.70;3.05;;;;;;;7.69;38.26;95079.88;5023792;28;20033;-72
2022/03/23 08:42:24;;;;;;;13.18;3.65;;;;;;;7.79;38.88;95079.88;5023583;28;20211;-72
2022/03/23 08:44:49;;;;;;;7.68;3.33;;;;;;;7.78;38.04;95088.13;5023365;28;20101;-72
2022/03/23 08:47:15;;;;;;;11.88;4.85;;;;;;;7.92;38.10;95085.75;5023265;28;20025;-73
2022/03/23 08:49:40;;;;;;;15.80;2.80;;;;;;;8.05;37.64;95085.19;5023355;28;20033;-72
2022/03/23 08:52:06;;;;;;;12.18;2.95;;;;;;;7.98;36.54;95079.38;5023362;28;20057;-74
2022/03/23 08:54:32;;;;;;;9.68;3.03;;;;;;;8.07;36.59;95082.28;5023278;28;20052;-72
2022/03/23 08:56:57;;;;;;;9.80;3.60;;;;;;;8.19;37.30;95080.13;5022484;28;20205;-77
2022/03/23 08:59:23;;;;;;;14.43;4.38;;;;;;;8.32;36.40;95081.44;5005791;28;20220;-78
2022/03/23 09:01:48;;;;;;;11.32;3.08;;;;;;;8.36;36.24;95071.88;5023192;28;20072;-80
2022/03/23 09:04:14;;;;;;;14.65;2.85;;;;;;;8.36;36.35;95077.19;5023077;28;20053;-80
2022/03/23 09:06:40;;;;;;;9.23;2.67;;;;;;;8.51;36.05;95069.22;5023105;28;20018;-78
2022/03/23 09:09:05;;;;;;;9.35;2.90;;;;;;;8.60;35.97;95067.59;5023137;28;20022;-80
2022/03/23 09:11:32;;;;;;;7.93;2.92;;;;;;;8.58;35.44;95071.59;5023154;28;20097;-81
2022/03/23 09:13:58;;;;;;;11.57;2.90;;;;;;;8.56;35.53;95071.84;5023040;28;20029;-78
2022/03/23 09:16:24;;;;;;;11.77;3.53;;;;;;;8.75;35.84;95076.56;5022786;28;20034;-78
2022/03/23 09:18:49;;;;;;;7.57;2.83;;;;;;;8.84;35.53;95074.97;5022847;28;20322;-77
2022/03/23 09:21:15;;;;;;;14.00;4.40;;;;;;;8.96;35.13;95075.44;5023001;28;20158;-77
2022/03/23 09:23:43;;;;;;;15.73;3.20;;;;;;;9.11;34.77;95073.78;5022830;28;20068;-75
2022/03/23 09:26:10;;;;;;;9.20;2.50;;;;;;;9.10;33.64;95074.81;5005338;28;20064;-74
2022/03/23 09:28:35;;;;;;;10.48;3.05;;;;;;;9.16;34.74;95073.75;5022797;28;20034;-74
2022/03/23 09:31:01;;;;;;;9.95;3.08;;;;;;;9.23;34.17;95068.94;5022867;28;20323;-75
2022/03/23 09:33:28;;;;;;;7.60;3.05;;;;;;;9.27;34.03;95069.97;5022909;28;20034;-74
2022/03/23 09:35:53;;;;;;;15.80;3.15;;;;;;;9.30;33.35;95064.09;5022485;28;20220;-73
2022/03/23 09:38:19;;;;;;;8.88;2.75;;;;;;;9.35;32.91;95061.41;5022863;28;20053;-74
2022/03/23 09:40:47;;;;;;;11.65;3.42;;;;;;;9.35;33.58;95056.09;5022621;28;20034;-76
2022/03/23 09:43:12;;;;;;;9.30;2.85;;;;;;;9.37;33.67;95061.91;5022108;28;20124;-75
2022/03/23 09:48:11;;;;;;;5.70;2.75;;;;;;;9.51;33.46;95063.97;5022324;28;20022;-74
2022/03/23 09:50:38;;;;;;;13.98;2.92;;;;;;;9.51;32.18;95062.09;5022279;28;20038;-74
2022/03/23 09:53:04;;;;;;;10.63;3.35;;;;;;;9.29;33.09;95057.19;5022101;28;20383;-74
2022/03/23 09:55:30;;;;;;;17.70;3.40;;;;;;;9.26;33.43;95063.06;5022477;28;20030;-74
2022/03/23 09:58:02;;;;;;;10.35;2.83;;;;;;;9.26;33.64;95051.59;5020749;28;20149;-73
2022/03/23 10:00:34;;;;;;;12.48;3.05;;;;;;;9.18;33.66;95043.16;5020813;28;20037;-75
2022/03/23 10:03:42;;;;;;;15.18;3.15;;;;;;;9.24;33.79;95041.25;5020830;28;20034;-74
2022/03/23 10:06:29;;;;;;;15.38;3.15;;;;;;;9.27;34.02;95026.63;5020386;28;20022;-74
2022/03/23 10:09:36;;;;;;;9.98;3.33;;;;;;;9.31;34.71;95038.28;5023480;28;20032;-74
2022/03/23 10:12:20;;;;;;;6.15;3.00;;;;;;;9.35;34.32;95024.16;4992432;28;20034;-74
2022/03/23 10:15:39;;;;;;;16.70;3.38;;;;;;;9.59;34.07;95026.13;5026308;28;20101;-75
2022/03/23 10:18:04;;;;;;;11.13;4.55;;;;;;;9.78;33.55;95018.25;5026046;28;20025;-74
2022/03/23 10:20:29;;;;;;;11.20;2.92;;;;;;;9.92;33.32;95021.06;5026268;28;20223;-74
2022/03/23 10:22:55;;;;;;;13.57;3.20;;;;;;;9.95;33.23;95031.16;5026193;28;20044;-74
2022/03/23 10:25:27;;;;;;;9.70;2.80;;;;;;;9.96;32.84;95028.22;5025980;28;20159;-75
2022/03/23 10:27:57;;;;;;;9.40;3.38;;;;;;;9.89;32.50;95032.25;5025957;28;20038;-74
2022/03/23 10:30:38;;;;;;;11.90;3.13;;;;;;;10.05;32.29;95015.06;5025974;28;20293;-75
2022/03/23 10:33:14;;;;;;;13.80;3.85;;;;;;;10.16;32.21;95016.56;5025909;28;20350;-74
2022/03/23 10:35:40;;;;;;;10.65;3.58;;;;;;;10.27;31.67;95016.47;5025615;28;20028;-74
2022/03/23 10:38:25;;;;;;;8.95;2.60;;;;;;;10.33;31.13;95004.72;5025680;28;20018;-74
2022/03/23 10:40:52;;;;;;;15.35;3.30;;;;;;;10.47;30.93;95007.50;5025773;28;20366;-74
2022/03/23 10:43:23;;;;;;;11.25;3.03;;;;;;;10.51;30.67;95005.84;5025654;28;20089;-75
2022/03/23 10:45:48;;;;;;;8.07;2.50;;;;;;;10.57;30.53;94996.72;5025696;28;20075;-75
2022/03/23 10:48:19;;;;;;;11.13;4.15;;;;;;;10.59;29.57;94992.69;5025698;28;20049;-75
2022/03/23 10:50:53;;;;;;;19.30;3.38;;;;;;;10.58;29.70;95000.97;5025550;28;20030;-75
2022/03/23 10:53:36;;;;;;;10.32;2.88;;;;;;;10.61;29.69;94990.53;5025557;28;20050;-74
2022/03/23 10:56:02;;;;;;;6.90;2.75;;;;;;;10.59;28.99;94982.03;5025645;28;20026;-76
2022/03/23 10:58:29;;;;;;;9.65;3.30;;;;;;;10.62;29.23;94981.47;5025373;28;20049;-77
2022/03/23 11:00:57;;;;;;;13.38;2.80;;;;;;;10.61;28.60;94981.75;5025161;28;20029;-73
2022/03/23 11:03:38;;;;;;;10.13;3.25;;;;;;;10.57;28.45;94981.50;5025313;28;20388;-74
2022/03/23 11:06:05;;;;;;;8.50;2.90;;;;;;;10.62;27.99;94976.13;5025552;28;20108;-73
2022/03/23 11:08:31;;;;;;;21.27;3.85;;;;;;;10.50;28.53;94978.41;5025190;28;20089;-74
2022/03/23 11:16:35;;;;;;;8.20;2.53;;;;;;;10.67;27.95;94975.28;5025217;28;20026;-74
2022/03/23 11:19:12;;;;;;;8.30;2.90;;;;;;;10.73;27.09;94965.34;5024693;28;20026;-75
2022/03/23 11:21:57;;;;;;;14.43;3.13;;;;;;;10.85;27.40;94963.03;5024908;28;20044;-75
2022/03/23 11:24:23;;;;;;;14.52;2.75;;;;;;;10.95;27.46;94962.09;5025271;28;20026;-75
2022/03/23 11:26:49;;;;;;;13.65;2.83;;;;;;;10.97;27.28;94950.06;5025064;28;20189;-75
2022/03/23 11:29:18;;;;;;;14.25;3.20;;;;;;;10.95;27.60;94951.41;5024872;28;20052;-75
2022/03/23 11:31:48;;;;;;;10.27;2.80;;;;;;;10.92;26.63;94944.78;5024814;28;20017;-75
2022/03/23 11:34:19;;;;;;;10.15;2.65;;;;;;;11.01;25.58;94945.75;5025041;28;20081;-76
2022/03/23 11:36:47;;;;;;;13.98;2.70;;;;;;;11.06;27.04;94947.53;5024688;28;20252;-76
2022/03/23 11:39:13;;;;;;;6.80;3.53;;;;;;;11.07;27.55;94951.78;5024675;28;20017;-77
2022/03/23 11:41:41;;;;;;;10.27;2.72;;;;;;;11.24;28.24;94949.41;5007181;28;20435;-75
2022/03/23 11:44:07;;;;;;;8.85;2.75;;;;;;;11.16;28.50;94933.25;5024495;28;20033;-76
2022/03/23 11:46:32;;;;;;;14.52;3.35;;;;;;;11.15;28.60;94940.44;5024537;28;20022;-75
2022/03/23 11:49:20;;;;;;;9.88;3.22;;;;;;;11.27;28.11;94937.34;5024733;28;20025;-74
2022/03/23 11:52:00;;;;;;;7.82;2.92;;;;;;;11.34;28.58;94943.13;5024211;28;20049;-75
2022/03/23 11:57:41;;;;;;;9.82;2.60;;;;;;;11.49;27.03;94933.28;5024497;28;20108;-75
2022/03/23 12:00:16;;;;;;;13.27;2.83;;;;;;;11.51;25.51;94931.13;5024009;28;20025;-77